Latest Weather Observations for Inner Beacon

IDQ60801

Issued at 6:06 pm EST Tuesday 27 January 2015 (issued every 30 minutes, with the page automatically refreshed every 10 minutes)

About weather observations | Map of weather stations | Latest weather observations for QLD | Other Formats
Station Details ID: 040926 Name: INNER RECIPROCAL MARKER Lat: -27.26 Lon: 153.24 Height: 20.0 m
Data from the previous 72 hours. | See also: Recent months for locations in Queensland
Date/Time
EST
Temp
°C
App
Temp
°C
Dew
Point
Rel
Hum
%
Delta-T
°C
Wind Press
QNH
hPa
Press
MSL
hPa
Rain
since 9 am
mm
Dir
 
Spd
km/h
Gust
km/h
Spd
kts
Gust
kts
27/06:00pm - - - - - ESE 32 39 17 21 - - -
27/05:30pm - - - - - ESE 32 43 17 23 - - -
27/05:00pm - - - - - ESE 32 37 17 20 - - -
27/04:30pm - - - - - ESE 35 41 19 22 - - -
27/04:00pm - - - - - ESE 33 39 18 21 - - -
27/03:30pm - - - - - ESE 32 37 17 20 - - -
27/03:00pm - - - - - ESE 28 33 15 18 - - -
27/02:30pm - - - - - ESE 28 33 15 18 - - -
27/02:00pm - - - - - ESE 28 35 15 19 - - -
27/01:30pm - - - - - ESE 28 33 15 18 - - -
27/01:00pm - - - - - ESE 26 32 14 17 - - -
27/12:30pm - - - - - ESE 26 32 14 17 - - -
27/12:00pm - - - - - ESE 26 32 14 17 - - -
27/11:30am - - - - - ESE 26 32 14 17 - - -
27/11:00am - - - - - ESE 20 24 11 13 - - -
27/10:30am - - - - - ESE 20 26 11 14 - - -
27/10:00am - - - - - ESE 20 26 11 14 - - -
27/09:30am - - - - - SE 19 22 10 12 - - -
27/09:00am - - - - - ESE 19 24 10 13 - - -
27/08:30am - - - - - ESE 28 32 15 17 - - -
27/08:00am - - - - - SE 24 28 13 15 - - -
27/07:30am - - - - - ESE 24 28 13 15 - - -
27/07:00am - - - - - ESE 22 28 12 15 - - -
27/06:30am - - - - - ESE 20 24 11 13 - - -
27/06:00am - - - - - ESE 22 28 12 15 - - -
27/05:30am - - - - - ESE 24 30 13 16 - - -
27/05:00am - - - - - ESE 24 28 13 15 - - -
27/04:30am - - - - - SE 24 28 13 15 - - -
27/04:00am - - - - - SE 28 32 15 17 - - -
27/03:30am - - - - - ESE 32 37 17 20 - - -
27/03:00am - - - - - ESE 33 39 18 21 - - -
27/02:30am - - - - - ESE 32 37 17 20 - - -
27/02:00am - - - - - SE 28 33 15 18 - - -
27/01:30am - - - - - ESE 22 30 12 16 - - -
27/01:00am - - - - - ESE 17 22 9 12 - - -
27/12:30am - - - - - ESE 20 28 11 15 - - -
27/12:00am - - - - - ESE 22 26 12 14 - - -
 
Date/Time
EST
Temp
°C
App
Temp
°C
Dew
Point
Rel
Hum
%
Delta-T
°C
Wind Press
QNH
hPa
Press
MSL
hPa
Rain
since 9 am
mm
Dir
 
Spd
km/h
Gust
km/h
Spd
kts
Gust
kts
26/11:30pm - - - - - ESE 26 30 14 16 - - -
26/11:00pm - - - - - ESE 28 33 15 18 - - -
26/10:30pm - - - - - ESE 28 33 15 18 - - -
26/10:00pm - - - - - SE 32 35 17 19 - - -
26/09:30pm - - - - - SE 32 37 17 20 - - -
26/09:00pm - - - - - SE 32 37 17 20 - - -
26/08:30pm - - - - - SE 33 41 18 22 - - -
26/08:00pm - - - - - SE 30 37 16 20 - - -
26/07:30pm - - - - - SE 33 41 18 22 - - -
26/07:00pm - - - - - SE 37 43 20 23 - - -
26/06:30pm - - - - - SE 39 44 21 24 - - -
26/06:00pm - - - - - SE 35 43 19 23 - - -
26/05:30pm - - - - - ESE 28 35 15 19 - - -
26/05:00pm - - - - - ESE 30 35 16 19 - - -
26/04:30pm - - - - - ESE 26 32 14 17 - - -
26/04:00pm - - - - - ESE 30 35 16 19 - - -
26/03:30pm - - - - - ESE 24 28 13 15 - - -
26/03:00pm - - - - - E 24 28 13 15 - - -
26/02:30pm - - - - - ESE 22 26 12 14 - - -
26/02:00pm - - - - - ESE 26 30 14 16 - - -
26/01:30pm - - - - - ESE 24 30 13 16 - - -
26/01:00pm - - - - - E 22 26 12 14 - - -
26/12:30pm - - - - - ESE 22 26 12 14 - - -
26/12:00pm - - - - - ESE 24 28 13 15 - - -
26/11:30am - - - - - ESE 22 28 12 15 - - -
26/11:00am - - - - - E 22 28 12 15 - - -
26/10:30am - - - - - E 15 19 8 10 - - -
26/10:00am - - - - - E 11 13 6 7 - - -
26/09:30am - - - - - E 13 13 7 7 - - -
26/09:00am - - - - - E 11 15 6 8 - - -
26/08:30am - - - - - SE 9 9 5 5 - - -
26/08:00am - - - - - SSE 7 9 4 5 - - -
26/07:30am - - - - - S 11 13 6 7 - - -
26/07:00am - - - - - SSE 17 17 9 9 - - -
26/06:30am - - - - - ESE 9 11 5 6 - - -
26/06:00am - - - - - ESE 13 15 7 8 - - -
26/05:30am - - - - - ESE 11 13 6 7 - - -
26/05:00am - - - - - SE 7 7 4 4 - - -
26/04:30am - - - - - ESE 4 6 2 3 - - -
26/04:00am - - - - - ESE 6 6 3 3 - - -
26/03:30am - - - - - CALM 0 0 0 0 - - -
26/03:00am - - - - - CALM 0 0 0 0 - - -
26/02:30am - - - - - NNE 4 6 2 3 - - -
26/02:00am - - - - - NNE 11 13 6 7 - - -
26/01:30am - - - - - NNE 11 13 6 7 - - -
26/01:00am - - - - - NNE 15 17 8 9 - - -
26/12:30am - - - - - NE 9 11 5 6 - - -
26/12:00am - - - - - ENE 9 13 5 7 - - -
 
Date/Time
EST
Temp
°C
App
Temp
°C
Dew
Point
Rel
Hum
%
Delta-T
°C
Wind Press
QNH
hPa
Press
MSL
hPa
Rain
since 9 am
mm
Dir
 
Spd
km/h
Gust
km/h
Spd
kts
Gust
kts
25/11:30pm - - - - - NE 7 11 4 6 - - -
25/11:00pm - - - - - E 6 6 3 3 - - -
25/10:30pm - - - - - N 6 7 3 4 - - -
25/10:00pm - - - - - NNE 6 7 3 4 - - -
25/09:30pm - - - - - N 13 15 7 8 - - -
25/09:00pm - - - - - N 11 13 6 7 - - -
25/08:30pm - - - - - N 13 15 7 8 - - -
25/08:00pm - - - - - NNE 15 19 8 10 - - -
25/07:30pm - - - - - NNE 19 22 10 12 - - -
25/07:00pm - - - - - NNE 22 28 12 15 - - -
25/06:30pm - - - - - NNE 28 32 15 17 - - -
25/06:00pm - - - - - N 32 35 17 19 - - -
25/05:30pm - - - - - N 30 37 16 20 - - -
25/05:00pm - - - - - NNE 26 32 14 17 - - -
25/04:30pm - - - - - N 28 32 15 17 - - -
25/04:00pm - - - - - N 28 33 15 18 - - -
25/03:30pm - - - - - N 28 35 15 19 - - -
25/03:00pm - - - - - NNE 28 35 15 19 - - -
25/02:30pm - - - - - N 26 30 14 16 - - -
25/02:00pm - - - - - NNE 26 28 14 15 - - -
25/01:30pm - - - - - N 22 24 12 13 - - -
25/01:00pm - - - - - NNE 20 24 11 13 - - -
25/12:30pm - - - - - NNE 19 20 10 11 - - -
25/12:00pm - - - - - NNE 19 20 10 11 - - -
25/11:30am - - - - - NNE 13 15 7 8 - - -
25/11:00am - - - - - NNE 11 13 6 7 - - -
25/10:30am - - - - - N 13 15 7 8 - - -
25/10:00am - - - - - N 7 9 4 5 - - -
25/09:30am - - - - - N 9 11 5 6 - - -
25/09:00am - - - - - NNW 11 13 6 7 - - -
25/08:30am - - - - - NW 9 11 5 6 - - -
25/08:00am - - - - - NNW 9 11 5 6 - - -
25/07:30am - - - - - NW 7 9 4 5 - - -
25/07:00am - - - - - NW 13 15 7 8 - - -
25/06:30am - - - - - NW 13 15 7 8 - - -
25/06:00am - - - - - NNW 11 15 6 8 - - -
25/05:30am - - - - - NNW 13 15 7 8 - - -
25/05:00am - - - - - NNW 17 20 9 11 - - -
25/04:30am - - - - - NNW 17 20 9 11 - - -
25/04:00am - - - - - NNW 17 19 9 10 - - -
25/03:30am - - - - - NNW 17 19 9 10 - - -
25/03:00am - - - - - NW 15 19 8 10 - - -
25/02:30am - - - - - NW 15 19 8 10 - - -
25/02:00am - - - - - NW 13 17 7 9 - - -
25/01:30am - - - - - NNW 11 13 6 7 - - -
25/01:00am - - - - - NW 9 11 5 6 - - -
25/12:30am - - - - - NW 9 11 5 6 - - -
25/12:00am - - - - - NNW 6 7 3 4 - - -
 
Date/Time
EST
Temp
°C
App
Temp
°C
Dew
Point
Rel
Hum
%
Delta-T
°C
Wind Press
QNH
hPa
Press
MSL
hPa
Rain
since 9 am
mm
Dir
 
Spd
km/h
Gust
km/h
Spd
kts
Gust
kts
24/11:30pm - - - - - NNW 6 7 3 4 - - -
24/11:00pm - - - - - CALM 0 0 0 0 - - -
24/10:30pm - - - - - CALM 0 2 0 1 - - -
24/10:00pm - - - - - ENE 4 6 2 3 - - -
24/09:30pm - - - - - ENE 2 4 1 2 - - -
24/09:00pm - - - - - ENE 6 7 3 4 - - -
24/08:30pm - - - - - E 7 9 4 5 - - -
24/08:00pm - - - - - E 13 17 7 9 - - -
24/07:30pm - - - - - E 13 17 7 9 - - -
24/07:00pm - - - - - E 15 17 8 9 - - -
24/06:30pm - - - - - E 13 19 7 10 - - -

Other Formats:

Comma delimited format used in spreadsheet applications
http://www.bom.gov.au/fwo/IDQ60801/IDQ60801.94590.axf

JavaScript Object Notation format (JSON) in row-major order
http://www.bom.gov.au/fwo/IDQ60801/IDQ60801.94590.json